Time;durP1;ratioP1;P1;durP2;ratioP2;P2;SDS_P1;SDS_P2;PMS_P1;PMS_P2;Temp;Humidity;BMP_temperature;BMP_pressure;BME280_temperature;BME280_humidity;BME280_pressure;Samples;Min_cycle;Max_cycle;Signal;HPM_P1;HPM_P2
2021/01/14 00:00:21;;;;;;;11.13;2.73;;;4.20;99.90;;;;;;5055119;28;20439;-65
2021/01/14 00:02:46;;;;;;;8.80;3.80;;;4.10;99.90;;;;;;5051653;28;20461;-65
2021/01/14 00:05:13;;;;;;;16.53;3.20;;;4.10;99.90;;;;;;5053399;28;20541;-65
2021/01/14 00:07:39;;;;;;;6.37;3.20;;;4.10;99.90;;;;;;5059583;28;20546;-65
2021/01/14 00:10:07;;;;;;;5.37;2.27;;;4.10;99.90;;;;;;5051632;28;20441;-65
2021/01/14 00:12:32;;;;;;;7.40;3.10;;;4.00;99.90;;;;;;5054552;28;22337;-65
2021/01/14 00:14:58;;;;;;;9.07;2.93;;;4.00;99.90;;;;;;5061085;28;20433;-65
2021/01/14 00:17:24;;;;;;;7.83;1.90;;;4.00;99.90;;;;;;5055964;28;20176;-65
2021/01/14 00:19:49;;;;;;;5.50;2.00;;;4.00;99.90;;;;;;5059695;28;20709;-65
2021/01/14 00:22:15;;;;;;;7.83;2.33;;;4.00;99.90;;;;;;5060209;28;20605;-65
2021/01/14 00:24:41;;;;;;;8.27;2.90;;;3.90;99.90;;;;;;5063360;28;20262;-65
2021/01/14 00:27:06;;;;;;;10.90;3.03;;;3.90;99.90;;;;;;5053479;28;20590;-65
2021/01/14 00:29:32;;;;;;;4.47;2.67;;;3.90;99.90;;;;;;5057691;28;20423;-65
2021/01/14 00:31:57;;;;;;;9.03;2.00;;;3.80;99.90;;;;;;5055750;28;20219;-65
2021/01/14 00:34:24;;;;;;;7.10;2.43;;;3.90;99.90;;;;;;5055329;28;20172;-65
2021/01/14 00:39:33;;;;;;;5.47;2.03;;;3.80;99.90;;;;;;5057492;28;21011;-65
2021/01/14 00:41:59;;;;;;;5.60;2.53;;;3.80;99.90;;;;;;5055935;28;20429;-65
2021/01/14 00:44:24;;;;;;;6.97;2.20;;;3.70;99.90;;;;;;5061459;28;20632;-65
2021/01/14 00:46:59;;;;;;;6.97;2.70;;;3.70;99.90;;;;;;5055489;28;20184;-65
2021/01/14 00:49:25;;;;;;;8.77;2.10;;;3.70;99.90;;;;;;5057334;28;20263;-65
2021/01/14 00:51:51;;;;;;;6.73;2.90;;;3.60;99.90;;;;;;5056532;28;20982;-65
2021/01/14 00:54:17;;;;;;;11.00;2.40;;;3.60;99.90;;;;;;5054447;28;20469;-65
2021/01/14 00:56:43;;;;;;;6.63;2.47;;;3.50;99.90;;;;;;5060115;28;20419;-65
2021/01/14 00:59:09;;;;;;;6.83;2.10;;;3.50;99.90;;;;;;5054822;28;20468;-65
2021/01/14 01:01:35;;;;;;;9.17;2.77;;;3.40;99.90;;;;;;5058024;28;20510;-65
2021/01/14 01:04:01;;;;;;;6.93;2.20;;;3.40;99.90;;;;;;5057305;28;20445;-65
2021/01/14 01:06:35;;;;;;;4.43;2.40;;;3.40;99.90;;;;;;5069033;28;20191;-65
2021/01/14 01:09:00;;;;;;;3.40;2.00;;;3.40;99.90;;;;;;5057561;28;20491;-65
2021/01/14 01:11:27;;;;;;;5.77;2.43;;;3.40;99.90;;;;;;5057284;28;20458;-65
2021/01/14 01:13:53;;;;;;;6.97;2.67;;;3.40;99.90;;;;;;5055330;28;20459;-65
2021/01/14 01:16:19;;;;;;;4.57;1.90;;;3.40;99.90;;;;;;5054856;28;20418;-65
2021/01/14 01:18:45;;;;;;;9.83;2.77;;;3.40;99.90;;;;;;5061674;28;20437;-65
2021/01/14 01:21:10;;;;;;;9.53;2.80;;;3.40;99.90;;;;;;5056156;28;20458;-65
2021/01/14 01:23:36;;;;;;;6.60;2.43;;;3.40;99.90;;;;;;5052185;28;21022;-65
2021/01/14 01:26:02;;;;;;;6.60;2.80;;;3.40;99.90;;;;;;5056027;28;20646;-65
2021/01/14 01:28:28;;;;;;;6.23;2.20;;;3.40;99.90;;;;;;5055793;28;20183;-65
2021/01/14 01:30:53;;;;;;;10.83;2.47;;;3.40;99.90;;;;;;5058249;28;20511;-65
2021/01/14 01:33:19;;;;;;;8.80;1.87;;;3.40;99.90;;;;;;5058911;28;20172;-65
2021/01/14 01:35:49;;;;;;;6.20;2.77;;;3.40;99.90;;;;;;5058859;28;20614;-65
2021/01/14 01:38:15;;;;;;;7.53;2.10;;;3.40;99.90;;;;;;5055456;28;20181;-65
2021/01/14 01:40:40;;;;;;;18.13;3.73;;;3.40;99.90;;;;;;5056244;28;20442;-65
2021/01/14 01:43:06;;;;;;;9.80;3.10;;;3.40;99.90;;;;;;5056358;28;20188;-65
2021/01/14 01:45:31;;;;;;;8.20;2.50;;;3.40;99.90;;;;;;5070236;28;20177;-65
2021/01/14 01:47:57;;;;;;;5.53;2.43;;;3.40;99.90;;;;;;5057020;28;20184;-65
2021/01/14 01:50:23;;;;;;;8.17;2.10;;;3.30;99.90;;;;;;5054988;28;20204;-65
2021/01/14 01:52:49;;;;;;;7.43;2.07;;;3.30;99.90;;;;;;5054210;28;20207;-65
2021/01/14 01:55:17;;;;;;;8.30;2.70;;;3.30;99.90;;;;;;5059098;28;20175;-65
2021/01/14 01:57:43;;;;;;;13.73;3.10;;;3.30;99.90;;;;;;5060051;28;20503;-65
2021/01/14 02:00:09;;;;;;;3.30;2.07;;;3.30;99.90;;;;;;5057391;28;20797;-65
2021/01/14 02:02:35;;;;;;;5.50;2.60;;;3.30;99.90;;;;;;5053559;28;20962;-65
2021/01/14 02:05:00;;;;;;;9.90;2.50;;;3.30;99.90;;;;;;5079177;28;20441;-65
2021/01/14 02:07:44;;;;;;;6.83;2.47;;;3.30;99.90;;;;;;5060273;28;20177;-65
2021/01/14 02:10:29;;;;;;;13.37;3.23;;;3.20;99.90;;;;;;5053961;28;20238;-65
2021/01/14 02:13:28;;;;;;;4.27;2.07;;;3.20;99.90;;;;;;5054284;28;20461;-65
2021/01/14 02:15:58;;;;;;;9.43;2.70;;;3.20;99.90;;;;;;5054699;28;20908;-65
2021/01/14 02:18:24;;;;;;;5.43;2.20;;;3.20;99.90;;;;;;5051956;28;20439;-65
2021/01/14 02:20:54;;;;;;;4.63;2.33;;;3.30;99.90;;;;;;5053854;28;20427;-65
2021/01/14 02:23:57;;;;;;;13.27;5.40;;;3.20;99.90;;;;;;5053020;28;20446;-65
2021/01/14 02:26:30;;;;;;;7.40;3.40;;;3.20;99.90;;;;;;5057497;28;20753;-65
2021/01/14 02:28:57;;;;;;;7.40;3.00;;;3.10;99.90;;;;;;5058481;28;20790;-65
2021/01/14 02:31:23;;;;;;;11.33;2.33;;;3.10;99.90;;;;;;5057466;28;20470;-65
2021/01/14 02:33:50;;;;;;;6.83;2.37;;;3.10;99.90;;;;;;5053786;28;20768;-65
2021/01/14 02:36:16;;;;;;;6.73;2.70;;;3.10;99.90;;;;;;5052037;28;20442;-65
2021/01/14 02:38:42;;;;;;;6.60;2.43;;;3.10;99.90;;;;;;5055359;28;20450;-65
2021/01/14 02:41:07;;;;;;;6.30;1.97;;;3.10;99.90;;;;;;5057624;28;20193;-65
2021/01/14 02:43:33;;;;;;;7.63;2.47;;;3.10;99.90;;;;;;5053449;28;20188;-65
2021/01/14 02:45:59;;;;;;;9.40;3.37;;;3.10;99.90;;;;;;5056330;28;20292;-65
2021/01/14 02:48:50;;;;;;;8.37;2.20;;;3.10;99.90;;;;;;5053115;28;20484;-65
2021/01/14 02:51:21;;;;;;;10.57;2.80;;;3.10;99.90;;;;;;5058744;28;20243;-65
2021/01/14 02:53:49;;;;;;;4.77;2.13;;;3.10;99.90;;;;;;5055682;28;20436;-65
2021/01/14 02:56:17;;;;;;;7.70;2.50;;;3.20;99.90;;;;;;5055382;28;20517;-65
2021/01/14 02:58:42;;;;;;;6.70;3.90;;;3.20;99.90;;;;;;5050855;28;20466;-65
2021/01/14 03:01:08;;;;;;;9.27;2.60;;;3.20;99.90;;;;;;5057210;28;20470;-65
2021/01/14 03:03:33;;;;;;;14.50;3.10;;;3.20;99.90;;;;;;5060469;28;20192;-65
2021/01/14 03:05:59;;;;;;;5.83;2.07;;;3.20;99.90;;;;;;5052258;28;20185;-65
2021/01/14 03:08:24;;;;;;;8.93;2.27;;;3.20;99.90;;;;;;5052855;28;20242;-65
2021/01/14 03:10:50;;;;;;;7.90;2.93;;;3.10;99.90;;;;;;5053855;28;20191;-65
2021/01/14 03:13:15;;;;;;;7.03;2.13;;;3.10;99.90;;;;;;5051891;28;20192;-65
2021/01/14 03:15:41;;;;;;;8.73;2.63;;;3.00;99.90;;;;;;5053096;28;20528;-65
2021/01/14 03:18:11;;;;;;;5.67;2.13;;;3.00;99.90;;;;;;5053824;28;20232;-65
2021/01/14 03:20:36;;;;;;;7.00;2.17;;;3.00;99.90;;;;;;5056647;28;20184;-65
2021/01/14 03:23:02;;;;;;;7.47;2.30;;;2.90;99.90;;;;;;5053972;28;20910;-65
2021/01/14 03:25:27;;;;;;;5.57;2.00;;;2.90;99.90;;;;;;5051516;28;20183;-65
2021/01/14 03:27:53;;;;;;;8.37;1.70;;;2.80;99.90;;;;;;5053834;28;20181;-65
2021/01/14 03:30:19;;;;;;;4.33;2.03;;;2.80;99.90;;;;;;5052001;28;20231;-65
2021/01/14 03:32:45;;;;;;;6.23;1.80;;;2.80;99.90;;;;;;5052971;28;20204;-65
2021/01/14 03:35:11;;;;;;;7.80;2.97;;;2.80;99.90;;;;;;5052835;28;20522;-65
2021/01/14 03:37:38;;;;;;;7.90;2.10;;;2.80;99.90;;;;;;5052436;28;20473;-65
2021/01/14 03:40:05;;;;;;;6.27;2.20;;;2.80;99.90;;;;;;5051792;28;20584;-64
2021/01/14 03:42:31;;;;;;;10.23;2.40;;;2.90;99.90;;;;;;5053993;28;20434;-64
2021/01/14 03:44:56;;;;;;;5.83;1.93;;;2.90;99.90;;;;;;5052772;28;20438;-64
2021/01/14 03:47:23;;;;;;;5.80;2.33;;;2.90;99.90;;;;;;5053700;28;20645;-64
2021/01/14 03:49:49;;;;;;;7.10;2.30;;;2.90;99.90;;;;;;5059986;28;20173;-64
2021/01/14 03:52:15;;;;;;;12.63;2.40;;;2.90;99.90;;;;;;5056895;28;20462;-64
2021/01/14 03:54:40;;;;;;;8.10;2.60;;;2.90;99.90;;;;;;5063809;28;20176;-65
2021/01/14 03:57:06;;;;;;;5.83;2.10;;;2.90;99.90;;;;;;5056890;28;20183;-64
2021/01/14 03:59:32;;;;;;;6.30;2.10;;;2.90;99.90;;;;;;5069989;28;20733;-65
2021/01/14 04:02:06;;;;;;;4.87;1.93;;;2.90;99.90;;;;;;5056398;28;20179;-64
2021/01/14 04:04:32;;;;;;;6.73;2.10;;;2.90;99.90;;;;;;5055815;28;20436;-64
2021/01/14 04:06:58;;;;;;;11.60;3.20;;;2.90;99.90;;;;;;5058186;28;20452;-65
2021/01/14 04:09:23;;;;;;;6.07;2.47;;;2.90;99.90;;;;;;5056072;28;20923;-65
2021/01/14 04:11:49;;;;;;;6.00;2.37;;;3.00;99.90;;;;;;5056737;28;20204;-65
2021/01/14 04:14:14;;;;;;;6.27;2.20;;;2.90;99.90;;;;;;5057518;28;20570;-65
2021/01/14 04:16:40;;;;;;;6.63;2.37;;;2.90;99.90;;;;;;5055637;28;20184;-65
2021/01/14 04:19:05;;;;;;;11.57;2.67;;;2.90;99.90;;;;;;5062492;28;20188;-65
2021/01/14 04:21:31;;;;;;;7.87;2.20;;;2.90;99.90;;;;;;5059662;28;20185;-65
2021/01/14 04:23:56;;;;;;;10.43;2.40;;;2.90;99.90;;;;;;5055156;28;20536;-64
2021/01/14 04:26:22;;;;;;;4.50;1.90;;;2.90;99.90;;;;;;5056543;28;20187;-65
2021/01/14 04:28:47;;;;;;;6.63;2.63;;;2.90;99.90;;;;;;5055901;28;20570;-64
2021/01/14 04:31:13;;;;;;;9.00;2.67;;;2.90;99.90;;;;;;5055793;28;20220;-65
2021/01/14 04:33:38;;;;;;;3.83;2.23;;;2.90;99.90;;;;;;5059248;28;20640;-65
2021/01/14 04:36:04;;;;;;;6.80;2.33;;;2.90;99.90;;;;;;5056711;28;20246;-65
2021/01/14 04:38:30;;;;;;;5.73;2.40;;;2.90;99.90;;;;;;5055291;28;20184;-65
2021/01/14 04:41:00;;;;;;;9.00;2.23;;;2.90;99.90;;;;;;5062133;28;20190;-65
2021/01/14 04:43:27;;;;;;;9.23;2.70;;;2.90;99.90;;;;;;5054899;28;20321;-64
2021/01/14 04:46:06;;;;;;;5.70;2.30;;;2.90;99.90;;;;;;5056267;28;20523;-64
2021/01/14 04:48:39;;;;;;;6.67;2.50;;;2.90;99.90;;;;;;5062441;28;20426;-65
2021/01/14 04:51:13;;;;;;;8.13;2.50;;;2.90;99.90;;;;;;5069695;28;20493;-65
2021/01/14 04:53:41;;;;;;;6.23;2.83;;;2.90;99.90;;;;;;5056293;28;20430;-65
2021/01/14 04:56:08;;;;;;;12.27;3.60;;;2.90;99.90;;;;;;5058240;28;20418;-65
2021/01/14 04:58:35;;;;;;;5.87;2.70;;;2.90;99.90;;;;;;5061417;28;20604;-65
2021/01/14 05:01:10;;;;;;;10.80;3.13;;;2.90;99.90;;;;;;5064487;28;20427;-65
2021/01/14 05:03:40;;;;;;;7.10;3.10;;;2.90;99.90;;;;;;5063909;28;20891;-65
2021/01/14 05:06:06;;;;;;;3.30;1.90;;;2.90;99.90;;;;;;5058271;28;20926;-65
2021/01/14 05:08:33;;;;;;;7.40;2.70;;;2.90;99.90;;;;;;5054195;28;20435;-65
2021/01/14 05:11:00;;;;;;;10.63;2.40;;;2.90;99.90;;;;;;5067324;28;20806;-65
2021/01/14 05:13:29;;;;;;;10.37;2.53;;;2.80;99.90;;;;;;5059638;28;20931;-65
2021/01/14 05:15:55;;;;;;;8.30;2.43;;;2.80;99.90;;;;;;5059863;28;20521;-65
2021/01/14 05:18:20;;;;;;;3.87;2.67;;;2.80;99.90;;;;;;5058942;28;20893;-65
2021/01/14 05:20:46;;;;;;;6.97;2.30;;;2.80;99.90;;;;;;5054481;28;20660;-65
2021/01/14 05:23:13;;;;;;;9.23;2.20;;;2.80;99.90;;;;;;5056588;28;20721;-65
2021/01/14 05:25:51;;;;;;;4.93;2.33;;;2.80;99.90;;;;;;5052533;28;20546;-65
2021/01/14 05:28:18;;;;;;;4.73;2.13;;;2.80;99.90;;;;;;5060450;28;20450;-64
2021/01/14 05:30:44;;;;;;;6.10;3.27;;;2.80;99.90;;;;;;5054768;28;20714;-65
2021/01/14 05:33:17;;;;;;;7.20;2.60;;;2.80;99.90;;;;;;5062292;28;20442;-65
2021/01/14 05:35:47;;;;;;;8.60;2.40;;;2.80;99.90;;;;;;5055555;28;20180;-64
2021/01/14 05:38:30;;;;;;;7.40;2.73;;;2.80;99.90;;;;;;5058483;28;20430;-65
2021/01/14 05:41:11;;;;;;;7.47;2.33;;;2.80;99.90;;;;;;5058082;28;20424;-65
2021/01/14 05:43:54;;;;;;;8.63;1.93;;;2.80;99.90;;;;;;5059901;28;20406;-65
2021/01/14 05:46:31;;;;;;;6.37;2.53;;;2.80;99.90;;;;;;5054282;28;20480;-65
2021/01/14 05:49:01;;;;;;;4.97;2.67;;;2.80;99.90;;;;;;5057017;28;20429;-65
2021/01/14 05:51:32;;;;;;;10.20;2.30;;;2.90;99.90;;;;;;5060252;28;21205;-65
2021/01/14 05:54:09;;;;;;;10.73;2.60;;;2.80;99.90;;;;;;5058855;28;20796;-65
2021/01/14 05:56:47;;;;;;;10.23;3.70;;;2.80;99.90;;;;;;5053981;28;20432;-65
2021/01/14 05:59:18;;;;;;;12.10;3.63;;;2.80;99.90;;;;;;5053974;28;20426;-65
2021/01/14 06:01:57;;;;;;;10.23;2.30;;;2.80;99.90;;;;;;5054741;28;20430;-65
2021/01/14 06:04:24;;;;;;;5.00;2.60;;;2.80;99.90;;;;;;5058643;28;20946;-65
2021/01/14 06:06:52;;;;;;;8.00;2.90;;;2.80;99.90;;;;;;5058988;28;20521;-65
2021/01/14 06:09:19;;;;;;;6.67;3.43;;;2.80;99.90;;;;;;5058660;28;20434;-65
2021/01/14 06:11:46;;;;;;;6.00;2.63;;;2.80;99.90;;;;;;5053348;28;21250;-64
2021/01/14 06:14:29;;;;;;;7.10;2.50;;;2.80;99.90;;;;;;5062334;28;20438;-65
2021/01/14 06:16:56;;;;;;;9.00;3.27;;;2.80;99.90;;;;;;5054502;28;20423;-65
2021/01/14 06:19:24;;;;;;;10.37;2.97;;;2.80;99.90;;;;;;5065679;28;20883;-65
2021/01/14 06:21:55;;;;;;;6.67;2.20;;;2.80;99.90;;;;;;5057877;28;20431;-65
2021/01/14 06:24:25;;;;;;;8.23;2.93;;;2.80;99.90;;;;;;5075397;28;20426;-65
2021/01/14 06:26:54;;;;;;;3.47;2.17;;;2.80;99.90;;;;;;5053090;28;20438;-65
2021/01/14 06:29:28;;;;;;;13.40;2.87;;;2.90;99.90;;;;;;5054473;28;20450;-65
2021/01/14 06:32:14;;;;;;;4.27;2.33;;;2.80;99.90;;;;;;5060026;28;20538;-65
2021/01/14 06:34:44;;;;;;;5.60;2.83;;;2.80;99.90;;;;;;5062298;28;20429;-65
2021/01/14 06:37:14;;;;;;;8.27;2.90;;;2.80;99.90;;;;;;5053418;28;20890;-65
2021/01/14 06:39:45;;;;;;;7.00;2.27;;;2.80;99.90;;;;;;5053503;28;20459;-65
2021/01/14 06:42:15;;;;;;;13.73;2.77;;;2.80;99.90;;;;;;5055232;28;20960;-65
2021/01/14 06:44:48;;;;;;;6.10;2.50;;;2.80;99.90;;;;;;5064054;28;20511;-65
2021/01/14 06:47:28;;;;;;;6.83;2.70;;;2.80;99.90;;;;;;5066418;28;20431;-65
2021/01/14 06:50:21;;;;;;;5.37;2.70;;;2.80;99.90;;;;;;5055833;28;20955;-65
2021/01/14 06:53:10;;;;;;;5.80;2.70;;;2.80;99.90;;;;;;5046131;28;20983;-65
2021/01/14 06:55:36;;;;;;;7.77;2.70;;;2.70;99.90;;;;;;5051098;28;20431;-65
2021/01/14 06:58:02;;;;;;;6.10;2.50;;;2.70;99.90;;;;;;5057039;28;20791;-65
2021/01/14 07:00:29;;;;;;;4.20;2.27;;;2.70;99.90;;;;;;5051832;28;20423;-65
2021/01/14 07:03:02;;;;;;;8.27;2.40;;;2.70;99.90;;;;;;5051316;28;20184;-65
2021/01/14 07:05:44;;;;;;;15.43;2.90;;;2.70;99.90;;;;;;5057508;28;20441;-65
2021/01/14 07:08:18;;;;;;;9.10;3.00;;;2.70;99.90;;;;;;5053854;28;20439;-65
2021/01/14 07:11:00;;;;;;;3.73;2.70;;;2.70;99.90;;;;;;5059556;28;20446;-65
2021/01/14 07:13:30;;;;;;;5.07;2.37;;;2.70;99.90;;;;;;5053696;28;20510;-65
2021/01/14 07:15:58;;;;;;;4.33;2.17;;;2.70;99.90;;;;;;5055474;28;20544;-65
2021/01/14 07:18:28;;;;;;;5.03;2.40;;;2.70;99.90;;;;;;5058446;28;20429;-65
2021/01/14 07:20:57;;;;;;;7.47;2.83;;;2.70;99.90;;;;;;5055738;28;20437;-65
2021/01/14 07:23:24;;;;;;;13.93;4.50;;;2.70;99.90;;;;;;5056925;28;20422;-65
2021/01/14 07:25:51;;;;;;;8.40;2.40;;;2.60;99.90;;;;;;5051799;28;20442;-65
2021/01/14 07:28:16;;;;;;;6.23;3.20;;;2.70;99.90;;;;;;5053516;28;20427;-65
2021/01/14 07:30:42;;;;;;;8.70;3.00;;;2.70;99.90;;;;;;5052194;28;20485;-65
2021/01/14 07:33:10;;;;;;;11.30;3.30;;;2.70;99.90;;;;;;5059697;28;20660;-65
2021/01/14 07:35:36;;;;;;;9.07;3.43;;;2.70;99.90;;;;;;5052204;28;20540;-64
2021/01/14 07:38:06;;;;;;;6.93;3.07;;;2.70;99.90;;;;;;5053299;28;20437;-65
2021/01/14 07:40:33;;;;;;;7.27;2.90;;;2.70;99.90;;;;;;5049386;28;20515;-65
2021/01/14 07:43:02;;;;;;;4.20;2.60;;;2.60;99.90;;;;;;5052687;28;20867;-64
2021/01/14 07:45:28;;;;;;;4.17;3.20;;;2.60;99.90;;;;;;5052909;28;20434;-65
2021/01/14 07:47:53;;;;;;;13.47;3.17;;;2.60;99.90;;;;;;5055305;28;20429;-65
2021/01/14 07:50:20;;;;;;;9.80;3.33;;;2.60;99.90;;;;;;5057242;28;20199;-65
2021/01/14 07:52:49;;;;;;;6.10;2.83;;;2.60;99.90;;;;;;5050683;28;20208;-65
2021/01/14 07:55:23;;;;;;;10.43;3.23;;;2.60;99.90;;;;;;5054961;28;20862;-65
2021/01/14 07:58:01;;;;;;;6.03;3.40;;;2.60;99.90;;;;;;5059295;28;20912;-64
2021/01/14 08:00:28;;;;;;;6.03;3.43;;;2.60;99.90;;;;;;5051052;28;20746;-65
2021/01/14 08:03:06;;;;;;;8.93;4.00;;;2.60;99.90;;;;;;5052396;28;20430;-65
2021/01/14 08:05:39;;;;;;;6.53;3.60;;;2.60;99.90;;;;;;5051349;28;20793;-65
2021/01/14 08:08:30;;;;;;;6.27;3.73;;;2.60;99.90;;;;;;5053305;28;20935;-65
2021/01/14 08:11:07;;;;;;;5.50;3.57;;;2.60;99.90;;;;;;5052614;28;20432;-65
2021/01/14 08:14:06;;;;;;;9.03;3.23;;;2.60;99.90;;;;;;5052329;28;20518;-65
2021/01/14 08:16:38;;;;;;;8.20;3.37;;;2.60;99.90;;;;;;5057751;28;20427;-65
2021/01/14 08:19:18;;;;;;;7.57;3.40;;;2.60;99.90;;;;;;5060632;28;20417;-65
2021/01/14 08:22:09;;;;;;;6.67;3.53;;;2.60;99.90;;;;;;5054314;28;20430;-65
2021/01/14 08:24:42;;;;;;;11.77;4.00;;;2.60;99.90;;;;;;5057419;28;20420;-65
2021/01/14 08:27:36;;;;;;;7.80;3.90;;;2.60;99.90;;;;;;5057407;28;20460;-65
2021/01/14 08:30:20;;;;;;;11.80;3.30;;;2.60;99.90;;;;;;5051269;28;20472;-65
2021/01/14 08:32:46;;;;;;;14.13;3.77;;;2.70;99.90;;;;;;5054081;28;21002;-65
2021/01/14 08:35:14;;;;;;;5.57;3.17;;;2.70;99.90;;;;;;5053850;28;20430;-65
2021/01/14 08:38:01;;;;;;;4.87;3.33;;;2.70;99.90;;;;;;5055932;28;20442;-65
2021/01/14 08:40:32;;;;;;;7.07;4.00;;;2.80;99.90;;;;;;5060562;28;20450;-65
2021/01/14 08:43:14;;;;;;;5.57;3.33;;;2.80;99.90;;;;;;5064348;28;20455;-65
2021/01/14 08:45:50;;;;;;;7.83;3.03;;;2.80;99.90;;;;;;5054681;28;20442;-65
2021/01/14 08:48:24;;;;;;;9.00;3.80;;;2.80;99.90;;;;;;5058590;28;20436;-65
2021/01/14 08:50:50;;;;;;;5.13;3.70;;;2.80;99.90;;;;;;5055623;28;20429;-65
2021/01/14 08:53:19;;;;;;;9.80;3.27;;;2.80;99.90;;;;;;5058855;28;20430;-65
2021/01/14 08:55:59;;;;;;;6.40;3.03;;;2.90;99.90;;;;;;5058453;28;20422;-65
2021/01/14 08:58:39;;;;;;;11.23;5.30;;;2.80;99.90;;;;;;5055268;28;20422;-65
2021/01/14 09:01:13;;;;;;;5.40;3.40;;;2.80;99.90;;;;;;5054608;28;20419;-65
2021/01/14 09:03:41;;;;;;;7.13;4.23;;;2.80;99.90;;;;;;5058220;28;20429;-65
2021/01/14 09:06:06;;;;;;;5.47;4.80;;;2.80;99.90;;;;;;5058201;28;20422;-65
2021/01/14 09:08:32;;;;;;;9.87;5.70;;;2.80;99.90;;;;;;5055679;28;20827;-65
2021/01/14 09:10:59;;;;;;;7.97;5.10;;;2.80;99.90;;;;;;5056687;28;20643;-65
2021/01/14 09:13:27;;;;;;;8.23;5.73;;;2.80;99.90;;;;;;5053677;28;20168;-65
2021/01/14 09:15:54;;;;;;;6.43;5.00;;;2.80;99.90;;;;;;5054907;28;20472;-65
2021/01/14 09:18:33;;;;;;;6.10;4.87;;;2.80;99.90;;;;;;5055486;28;20514;-65
2021/01/14 09:20:59;;;;;;;7.43;5.43;;;2.70;99.90;;;;;;5054520;28;20769;-64
2021/01/14 09:23:34;;;;;;;8.90;5.67;;;2.70;99.90;;;;;;5054911;28;20456;-65
2021/01/14 09:26:09;;;;;;;5.37;4.60;;;2.70;99.90;;;;;;5051433;28;20751;-64
2021/01/14 09:28:34;;;;;;;7.00;4.70;;;2.70;99.90;;;;;;5058595;28;20475;-65
2021/01/14 09:31:02;;;;;;;5.77;4.20;;;2.70;99.90;;;;;;5058748;28;20466;-65
2021/01/14 09:33:31;;;;;;;5.50;4.50;;;2.70;99.90;;;;;;5057254;28;20169;-65
2021/01/14 09:35:58;;;;;;;7.47;5.40;;;2.80;99.90;;;;;;5068693;28;20460;-65
2021/01/14 09:38:25;;;;;;;7.57;6.10;;;2.80;99.90;;;;;;5053225;28;20518;-65
2021/01/14 09:40:55;;;;;;;6.13;4.20;;;2.80;99.90;;;;;;5054553;28;20912;-65
2021/01/14 09:43:24;;;;;;;5.10;4.70;;;2.80;99.90;;;;;;5054133;28;20781;-65
2021/01/14 09:45:50;;;;;;;5.47;3.80;;;2.90;99.90;;;;;;5056529;28;20421;-65
2021/01/14 09:48:19;;;;;;;5.57;4.27;;;2.90;99.90;;;;;;5057636;28;20816;-65
2021/01/14 09:50:45;;;;;;;9.57;5.50;;;3.00;99.90;;;;;;5055855;28;20422;-65
2021/01/14 09:53:10;;;;;;;4.63;3.77;;;3.00;99.90;;;;;;5058089;28;20468;-65
2021/01/14 09:55:36;;;;;;;6.37;3.87;;;3.00;99.90;;;;;;5055784;28;20179;-65
2021/01/14 09:58:03;;;;;;;4.30;3.60;;;3.00;99.90;;;;;;5057405;28;20168;-65
2021/01/14 10:00:30;;;;;;;8.47;4.20;;;3.00;99.90;;;;;;5060749;28;20453;-65
2021/01/14 10:03:04;;;;;;;8.07;4.20;;;3.00;99.90;;;;;;5053896;28;20457;-65
2021/01/14 10:05:31;;;;;;;8.77;4.70;;;2.90;99.90;;;;;;5055320;28;20434;-65
2021/01/14 10:08:01;;;;;;;16.03;4.70;;;2.80;99.90;;;;;;5053276;28;20524;-65
2021/01/14 10:10:30;;;;;;;6.40;4.20;;;2.70;99.90;;;;;;5053765;28;20423;-65
2021/01/14 10:13:00;;;;;;;5.97;4.20;;;2.50;99.90;;;;;;5055149;28;20454;-65
2021/01/14 10:15:26;;;;;;;7.10;5.40;;;2.50;99.90;;;;;;5056262;28;20435;-65
2021/01/14 10:17:51;;;;;;;5.27;4.77;;;2.50;99.90;;;;;;5054211;28;21444;-65
2021/01/14 10:20:17;;;;;;;7.13;4.70;;;2.50;99.90;;;;;;5052820;28;20187;-65
2021/01/14 10:22:51;;;;;;;4.97;3.90;;;2.40;99.90;;;;;;5054221;28;20168;-65
2021/01/14 10:25:21;;;;;;;5.90;3.60;;;2.50;99.90;;;;;;5057529;28;20695;-65
2021/01/14 10:28:00;;;;;;;5.00;4.00;;;2.40;99.90;;;;;;5056627;28;20451;-65
2021/01/14 10:30:26;;;;;;;6.73;4.07;;;2.50;99.90;;;;;;5070572;28;20989;-65
2021/01/14 10:33:03;;;;;;;5.03;3.83;;;2.50;99.90;;;;;;5054543;28;20991;-65
2021/01/14 10:35:30;;;;;;;5.00;3.50;;;2.50;99.90;;;;;;5056217;28;20426;-65
2021/01/14 10:38:10;;;;;;;6.63;3.60;;;2.60;99.90;;;;;;5053131;28;20431;-65
2021/01/14 10:40:46;;;;;;;3.67;3.37;;;2.80;99.90;;;;;;5060297;28;20492;-65
2021/01/14 10:43:14;;;;;;;4.47;3.20;;;2.90;99.90;;;;;;5057999;28;20433;-65
2021/01/14 10:45:41;;;;;;;3.40;3.10;;;3.00;99.90;;;;;;5060187;28;20516;-65
2021/01/14 10:48:10;;;;;;;5.70;3.77;;;2.90;99.90;;;;;;5054126;28;20966;-65
2021/01/14 10:50:56;;;;;;;5.03;3.80;;;3.00;99.90;;;;;;5052362;28;20510;-65
2021/01/14 10:53:25;;;;;;;6.00;3.70;;;3.00;99.90;;;;;;5058581;28;20955;-65
2021/01/14 10:56:11;;;;;;;4.70;3.47;;;3.00;99.90;;;;;;5061533;28;20418;-65
2021/01/14 10:58:39;;;;;;;5.60;3.20;;;3.10;99.90;;;;;;5061348;28;20437;-65
2021/01/14 11:01:18;;;;;;;6.90;3.63;;;3.00;99.90;;;;;;5058173;28;20434;-65
2021/01/14 11:03:44;;;;;;;7.70;2.90;;;3.00;99.90;;;;;;5054898;28;20418;-65
2021/01/14 11:06:10;;;;;;;5.63;3.70;;;2.90;99.90;;;;;;5053265;28;20740;-65
2021/01/14 11:08:46;;;;;;;4.90;3.20;;;2.90;99.90;;;;;;5054795;28;20222;-65
2021/01/14 11:11:14;;;;;;;4.57;3.57;;;2.90;99.90;;;;;;5053990;28;20525;-65
2021/01/14 11:13:47;;;;;;;4.13;3.03;;;3.00;99.90;;;;;;5051750;28;20457;-65
2021/01/14 11:16:20;;;;;;;7.17;3.37;;;3.00;99.90;;;;;;5055033;28;20414;-65
2021/01/14 11:18:51;;;;;;;6.70;3.10;;;3.00;99.90;;;;;;5055233;28;20761;-65
2021/01/14 11:21:18;;;;;;;4.93;3.20;;;2.90;99.90;;;;;;5053628;28;20421;-65
2021/01/14 11:23:44;;;;;;;7.37;3.47;;;2.80;99.90;;;;;;5054836;28;20790;-65
2021/01/14 11:26:17;;;;;;;4.13;3.03;;;2.90;99.90;;;;;;5055964;28;20430;-65
2021/01/14 11:28:43;;;;;;;5.47;3.73;;;2.80;99.90;;;;;;5053561;28;20173;-65
2021/01/14 11:31:13;;;;;;;6.20;3.97;;;2.90;99.90;;;;;;5054365;28;20985;-65
2021/01/14 11:33:38;;;;;;;3.47;3.17;;;3.00;99.90;;;;;;5055569;28;20163;-65
2021/01/14 11:36:08;;;;;;;4.03;2.70;;;3.00;99.90;;;;;;5054680;28;20469;-65
2021/01/14 11:38:34;;;;;;;4.53;3.03;;;3.00;99.90;;;;;;5052164;28;20657;-65
2021/01/14 11:41:00;;;;;;;5.57;2.77;;;3.00;99.90;;;;;;5052375;28;20425;-65
2021/01/14 11:43:26;;;;;;;3.30;2.90;;;2.90;99.90;;;;;;5068026;28;20513;-65
2021/01/14 11:45:51;;;;;;;6.20;3.07;;;2.80;99.90;;;;;;5053304;28;20517;-65
2021/01/14 11:48:17;;;;;;;5.33;3.50;;;2.70;99.90;;;;;;5055054;28;20203;-65
2021/01/14 11:50:42;;;;;;;4.20;3.20;;;2.70;99.90;;;;;;5058653;28;20183;-65
2021/01/14 11:53:08;;;;;;;3.30;3.00;;;2.70;99.90;;;;;;5053650;28;20237;-65
2021/01/14 11:55:33;;;;;;;7.37;3.47;;;2.70;99.90;;;;;;5055947;28;20172;-65
2021/01/14 11:57:59;;;;;;;4.20;3.80;;;2.60;99.90;;;;;;5054970;28;20252;-65
2021/01/14 12:00:25;;;;;;;5.60;3.17;;;2.70;99.90;;;;;;5059700;28;20174;-65
2021/01/14 12:02:50;;;;;;;3.93;3.03;;;2.60;99.90;;;;;;5051542;28;20610;-65
2021/01/14 12:05:16;;;;;;;5.67;3.47;;;2.50;99.90;;;;;;5052507;28;20212;-65
2021/01/14 12:07:41;;;;;;;6.73;4.07;;;2.50;99.90;;;;;;5052014;28;20329;-65
2021/01/14 12:10:07;;;;;;;4.50;3.33;;;2.50;99.90;;;;;;5058889;28;20214;-65
2021/01/14 12:12:34;;;;;;;8.87;3.90;;;2.50;99.90;;;;;;5056389;28;20653;-65
2021/01/14 12:15:00;;;;;;;4.37;3.67;;;2.60;99.90;;;;;;5057628;28;20437;-66
2021/01/14 12:17:26;;;;;;;11.10;3.23;;;2.60;99.90;;;;;;5057558;28;20432;-65
2021/01/14 12:19:51;;;;;;;4.70;3.17;;;2.60;99.90;;;;;;5065654;28;20915;-65
2021/01/14 12:22:17;;;;;;;4.30;3.90;;;2.60;99.90;;;;;;5064915;28;20192;-65
2021/01/14 12:24:42;;;;;;;5.47;3.50;;;2.60;99.90;;;;;;5056571;28;20176;-65
2021/01/14 12:27:08;;;;;;;3.60;3.03;;;2.60;99.90;;;;;;5058011;28;22201;-65
2021/01/14 12:29:35;;;;;;;3.20;2.53;;;2.70;99.90;;;;;;5057586;28;20296;-65
2021/01/14 12:32:03;;;;;;;3.83;2.77;;;2.70;99.90;;;;;;5057705;28;20259;-65
2021/01/14 12:34:28;;;;;;;5.13;3.43;;;2.70;99.90;;;;;;5056788;28;20525;-65
2021/01/14 12:36:55;;;;;;;7.60;3.63;;;2.70;99.90;;;;;;5056057;28;20863;-65
2021/01/14 12:39:20;;;;;;;4.37;3.43;;;2.70;99.90;;;;;;5055120;28;20205;-65
2021/01/14 12:41:46;;;;;;;5.60;4.00;;;2.70;99.90;;;;;;5060815;28;20429;-65
2021/01/14 12:44:12;;;;;;;5.90;3.40;;;2.80;99.90;;;;;;5055115;28;20178;-64
2021/01/14 12:46:43;;;;;;;4.77;3.83;;;2.80;99.90;;;;;;5054234;28;20184;-65
2021/01/14 12:49:09;;;;;;;3.17;2.90;;;2.80;99.90;;;;;;5054754;28;20267;-65
2021/01/14 12:51:37;;;;;;;7.00;3.80;;;2.80;99.90;;;;;;5060269;28;20450;-65
2021/01/14 12:54:02;;;;;;;5.90;3.63;;;2.90;99.90;;;;;;5061520;28;20464;-67
2021/01/14 12:56:28;;;;;;;6.30;2.97;;;2.90;99.90;;;;;;5055934;28;20939;-65
2021/01/14 12:58:53;;;;;;;5.40;3.43;;;2.90;99.90;;;;;;5056428;28;20176;-65
2021/01/14 13:01:33;;;;;;;4.13;3.57;;;2.90;99.90;;;;;;5056952;28;20180;-65
2021/01/14 13:04:00;;;;;;;3.40;3.10;;;3.00;99.90;;;;;;5055904;28;20172;-65
2021/01/14 13:06:31;;;;;;;6.13;3.50;;;3.00;99.90;;;;;;5063396;28;20959;-65
2021/01/14 13:08:58;;;;;;;2.87;2.63;;;3.00;99.90;;;;;;5056312;28;20426;-65